createdAt,value
2019-05-15T00:01:41.086Z,0.83
2019-05-15T00:06:31.616Z,1.31
2019-05-15T00:11:44.990Z,0.80
2019-05-15T00:16:45.411Z,1.71
2019-05-15T00:21:35.147Z,0.59
2019-05-15T00:26:48.828Z,0.60
2019-05-15T00:31:52.397Z,0.81
2019-05-15T00:36:41.309Z,0.93
2019-05-15T00:47:05.308Z,1.05
2019-05-15T00:52:11.784Z,1.63
2019-05-15T00:56:57.872Z,0.52
2019-05-15T01:02:38.606Z,0.52
2019-05-15T01:07:32.647Z,0.86
2019-05-15T01:12:29.207Z,1.00
2019-05-15T01:17:31.750Z,1.16
2019-05-15T01:22:35.295Z,0.67
2019-05-15T01:27:38.787Z,0.54
2019-05-15T01:32:39.443Z,0.60
2019-05-15T01:37:42.996Z,1.12
2019-05-15T01:42:43.468Z,0.96
2019-05-15T01:47:48.679Z,0.71
2019-05-15T01:52:47.955Z,0.85
2019-05-15T01:58:10.467Z,1.87
2019-05-15T02:03:01.806Z,0.89
2019-05-15T02:08:02.751Z,1.37
2019-05-15T02:13:08.629Z,0.82
2019-05-15T02:18:19.113Z,0.96
2019-05-15T02:23:18.860Z,1.31
2019-05-15T02:28:18.847Z,0.86
2019-05-15T02:33:29.777Z,1.46
2019-05-15T02:38:40.423Z,0.89
2019-05-15T02:43:49.933Z,1.50
2019-05-15T02:48:48.870Z,1.01
2019-05-15T02:53:54.746Z,0.58
2019-05-15T02:58:59.949Z,0.96
2019-05-15T03:03:59.666Z,0.78
2019-05-15T03:08:59.681Z,1.54
2019-05-15T03:13:59.252Z,0.91
2019-05-15T03:19:04.724Z,0.85
2019-05-15T03:24:14.368Z,1.15
2019-05-15T03:29:34.735Z,1.08
2019-05-15T03:34:38.475Z,1.22
2019-05-15T03:39:35.155Z,1.21
2019-05-15T03:44:40.329Z,1.22
2019-05-15T03:49:39.744Z,1.43
2019-05-15T03:54:49.483Z,2.57
2019-05-15T03:59:59.564Z,1.64
2019-05-15T04:05:11.204Z,2.46
2019-05-15T04:10:19.754Z,0.75
2019-05-15T04:15:30.754Z,1.65
2019-05-15T04:20:35.424Z,1.35
2019-05-15T04:25:38.860Z,1.01
2019-05-15T04:30:45.454Z,2.08
2019-05-15T04:35:44.804Z,0.88
2019-05-15T04:40:52.578Z,1.03
2019-05-15T04:45:54.627Z,1.19
2019-05-15T04:51:00.207Z,0.91
2019-05-15T04:56:02.645Z,2.28
2019-05-15T05:01:21.510Z,1.08
2019-05-15T05:06:20.912Z,1.32
2019-05-15T05:11:28.610Z,1.51
2019-05-15T05:16:29.347Z,1.63
2019-05-15T05:21:41.003Z,2.18
2019-05-15T05:26:31.067Z,1.55
2019-05-15T05:31:49.079Z,2.57
2019-05-15T05:36:42.930Z,2.13
2019-05-15T05:41:48.719Z,1.93
2019-05-15T05:46:42.843Z,4.89
2019-05-15T05:52:04.885Z,1.70
2019-05-15T05:56:45.206Z,4.44
2019-05-15T06:01:59.423Z,2.40
2019-05-15T06:07:06.154Z,1.43
2019-05-15T06:11:58.315Z,1.43
2019-05-15T06:16:59.282Z,2.03
2019-05-15T06:22:02.758Z,1.02
2019-05-15T06:27:08.055Z,1.37
2019-05-15T06:32:15.816Z,0.89
2019-05-15T06:37:20.184Z,0.80
2019-05-15T06:42:28.179Z,1.51
2019-05-15T06:47:39.509Z,2.15
2019-05-15T06:52:31.117Z,1.08
2019-05-15T06:57:32.168Z,1.95
2019-05-15T07:02:39.700Z,1.88
2019-05-15T07:07:38.974Z,2.59
2019-05-15T07:12:55.204Z,1.76
2019-05-15T07:18:08.909Z,2.78
2019-05-15T07:23:08.655Z,2.59
2019-05-15T07:28:09.308Z,2.70
2019-05-15T07:33:10.525Z,2.88
2019-05-15T07:38:24.188Z,4.22
2019-05-15T07:43:18.791Z,3.18
2019-05-15T07:48:19.649Z,5.23
2019-05-15T07:53:24.120Z,3.81
2019-05-15T07:58:23.742Z,5.77
2019-05-15T08:03:58.943Z,5.81
2019-05-15T08:08:39.408Z,4.39
2019-05-15T08:14:03.616Z,5.98
2019-05-15T08:18:52.345Z,3.92
2019-05-15T08:24:04.033Z,3.38
2019-05-15T08:28:57.898Z,2.80
2019-05-15T08:34:12.647Z,3.74
2019-05-15T08:39:00.020Z,2.46
2019-05-15T08:44:18.415Z,2.82
2019-05-15T08:49:24.959Z,3.02
2019-05-15T08:54:28.996Z,3.30
2019-05-15T08:59:31.668Z,4.14
2019-05-15T09:04:38.650Z,4.21
2019-05-15T09:09:38.325Z,7.39
2019-05-15T09:14:42.461Z,6.19
2019-05-15T09:19:41.043Z,8.22
2019-05-15T09:24:55.148Z,9.10
2019-05-15T09:29:59.018Z,6.35
2019-05-15T09:34:59.260Z,6.05
2019-05-15T09:39:59.540Z,7.66
2019-05-15T09:45:08.718Z,7.34
2019-05-15T09:50:08.454Z,7.65
2019-05-15T09:55:10.231Z,7.30
2019-05-15T10:00:18.790Z,6.66
2019-05-15T10:05:31.835Z,7.39
2019-05-15T10:10:48.540Z,8.50
2019-05-15T10:20:41.127Z,9.14
2019-05-15T10:25:48.228Z,8.67
2019-05-15T10:30:53.844Z,8.59
2019-05-15T10:35:53.343Z,10.54
2019-05-15T10:41:08.925Z,8.68
2019-05-15T10:46:13.021Z,8.78
2019-05-15T10:51:21.437Z,8.86
2019-05-15T10:56:34.252Z,8.57
2019-05-15T11:01:29.550Z,9.58
2019-05-15T11:06:38.389Z,8.58
2019-05-15T11:11:51.570Z,9.34
2019-05-15T11:16:53.109Z,8.26
2019-05-15T11:21:48.931Z,8.62
2019-05-15T11:27:00.578Z,7.35
2019-05-15T11:32:04.414Z,9.98
2019-05-15T11:36:59.122Z,8.13
2019-05-15T11:41:59.459Z,7.32
2019-05-15T11:47:03.738Z,6.98
2019-05-15T11:52:08.338Z,6.49
2019-05-15T11:57:08.567Z,5.51
2019-05-15T12:02:10.449Z,5.40
2019-05-15T12:07:18.198Z,5.20
2019-05-15T12:12:18.477Z,5.29
2019-05-15T12:17:23.153Z,5.39
2019-05-15T12:22:24.604Z,5.39
2019-05-15T12:27:25.175Z,6.31
2019-05-15T12:37:32.800Z,5.14
2019-05-15T12:39:23.745Z,5.00
2019-05-15T13:03:12.597Z,6.18
2019-05-15T13:08:09.189Z,6.71
2019-05-15T13:13:12.117Z,6.13
2019-05-15T13:18:17.846Z,6.50
2019-05-15T13:23:18.288Z,6.64
2019-05-15T13:28:18.438Z,5.93
2019-05-15T13:33:28.525Z,7.27
2019-05-15T13:38:33.949Z,7.44
2019-05-15T13:43:38.392Z,6.10
2019-05-15T13:48:38.393Z,6.48
2019-05-15T13:54:03.281Z,5.61
2019-05-15T13:58:52.655Z,5.96
2019-05-15T14:04:03.191Z,5.69
2019-05-15T14:08:53.773Z,6.31
2019-05-15T14:14:05.174Z,5.84
2019-05-15T14:18:53.348Z,6.38
2019-05-15T14:24:08.965Z,5.09
2019-05-15T14:29:09.113Z,5.09
2019-05-15T14:34:12.251Z,4.74
2019-05-15T14:39:10.474Z,4.39
2019-05-15T14:44:22.112Z,6.06
2019-05-15T14:49:44.585Z,4.71
2019-05-15T14:54:33.269Z,3.67
2019-05-15T14:59:38.583Z,3.10
2019-05-15T15:04:35.826Z,4.88
2019-05-15T15:09:47.667Z,4.82
2019-05-15T15:14:57.173Z,4.85
2019-05-15T15:20:00.277Z,5.22
2019-05-15T15:25:09.198Z,4.72
2019-05-15T15:30:11.494Z,4.70
2019-05-15T15:40:34.217Z,3.55
2019-05-15T15:45:34.726Z,4.73
2019-05-15T15:55:38.254Z,3.74
2019-05-15T16:00:49.043Z,3.60
2019-05-15T16:05:43.870Z,3.40
2019-05-15T16:11:00.572Z,4.24
2019-05-15T16:16:01.824Z,3.58
2019-05-15T16:21:09.513Z,4.16
2019-05-15T16:26:12.191Z,5.11
2019-05-15T16:31:18.546Z,3.71
2019-05-15T16:36:13.433Z,3.09
2019-05-15T16:41:25.765Z,3.72
2019-05-15T16:46:24.509Z,5.00
2019-05-15T16:51:38.271Z,4.51
2019-05-15T16:56:48.880Z,4.33
2019-05-15T17:02:02.968Z,3.54
2019-05-15T17:06:41.534Z,3.62
2019-05-15T17:12:00.950Z,3.38
2019-05-15T17:17:02.055Z,2.76
2019-05-15T17:22:09.468Z,2.90
2019-05-15T17:27:12.564Z,8.54
2019-05-15T17:32:24.725Z,3.18
2019-05-15T17:37:28.721Z,3.31
2019-05-15T17:42:30.994Z,3.67
2019-05-15T17:47:31.410Z,3.69
2019-05-15T17:52:23.374Z,3.79
2019-05-15T17:57:30.381Z,3.29
2019-05-15T18:02:38.001Z,3.88
2019-05-15T18:07:45.273Z,4.68
2019-05-15T18:12:48.786Z,3.17
2019-05-15T18:17:54.287Z,2.94
2019-05-15T18:22:59.096Z,6.47
2019-05-15T18:28:08.493Z,5.06
2019-05-15T18:33:13.421Z,5.03
2019-05-15T18:38:13.940Z,4.72
2019-05-15T18:43:22.474Z,5.42
2019-05-15T18:48:23.279Z,3.81
2019-05-15T18:53:28.695Z,4.14
2019-05-15T18:58:32.456Z,3.74
2019-05-15T19:03:38.471Z,3.22
2019-05-15T19:08:38.791Z,3.64
2019-05-15T19:13:38.785Z,3.60
2019-05-15T19:19:03.026Z,3.06
2019-05-15T19:23:58.267Z,4.76
2019-05-15T19:28:59.133Z,3.76
2019-05-15T19:33:59.606Z,3.91
2019-05-15T19:38:59.159Z,4.22
2019-05-15T19:44:14.678Z,3.36
2019-05-15T19:49:17.869Z,5.21
2019-05-15T19:54:14.990Z,5.63
2019-05-15T19:59:23.949Z,5.34
2019-05-15T20:04:33.666Z,3.28
2019-05-15T20:09:42.985Z,3.76
2019-05-15T20:15:12.579Z,2.14
2019-05-15T20:20:00.776Z,1.80
2019-05-15T20:25:28.768Z,2.48
2019-05-15T20:30:31.395Z,2.11
2019-05-15T20:35:32.185Z,3.42
2019-05-15T20:40:37.163Z,1.89
2019-05-15T20:45:45.258Z,3.06
2019-05-15T20:50:48.190Z,4.03
2019-05-15T20:55:55.701Z,1.43
2019-05-15T21:01:09.049Z,3.48
2019-05-15T21:06:02.774Z,2.78
2019-05-15T21:11:12.755Z,2.68
2019-05-15T21:16:12.877Z,3.07
2019-05-15T21:26:29.079Z,3.71
2019-05-15T21:31:31.914Z,1.49
2019-05-15T21:36:31.352Z,2.22
2019-05-15T21:41:40.521Z,1.59
2019-05-15T21:46:44.354Z,2.13
2019-05-15T21:51:43.816Z,1.26
2019-05-15T21:57:06.753Z,1.23
2019-05-15T22:02:05.937Z,1.73
2019-05-15T22:06:58.449Z,2.66
2019-05-15T22:11:58.335Z,1.49
2019-05-15T22:17:01.117Z,1.36
2019-05-15T22:22:08.610Z,2.04
2019-05-15T22:27:09.468Z,1.93
2019-05-15T22:32:08.185Z,1.74
2019-05-15T22:37:21.879Z,2.08
2019-05-15T22:42:29.493Z,2.35
2019-05-15T22:47:28.030Z,3.31
2019-05-15T22:52:29.520Z,1.33
2019-05-15T22:57:29.781Z,0.84
2019-05-15T23:02:34.372Z,1.16
2019-05-15T23:07:35.414Z,1.45
2019-05-15T23:12:40.489Z,1.54
2019-05-15T23:17:43.387Z,2.33
2019-05-15T23:22:46.516Z,4.31
2019-05-15T23:27:48.978Z,1.37
2019-05-15T23:33:02.486Z,1.18
2019-05-15T23:38:01.673Z,0.98
2019-05-15T23:43:02.751Z,1.82
2019-05-15T23:48:14.061Z,3.30
2019-05-15T23:53:05.236Z,1.77
2019-05-15T23:58:10.197Z,2.28
